createdAt,value
2023-11-24T00:00:23.823Z,99313.09
2023-11-24T00:05:26.222Z,99318.13
2023-11-24T00:10:29.884Z,99314.47
2023-11-24T00:15:31.955Z,99277.13
2023-11-24T00:20:33.978Z,99273.66
2023-11-24T00:25:35.416Z,99321.31
2023-11-24T00:30:36.988Z,99315.91
2023-11-24T00:35:38.530Z,99345.28
2023-11-24T00:40:43.059Z,99325.53
2023-11-24T00:45:44.604Z,99323.28
2023-11-24T00:50:46.141Z,99326.38
2023-11-24T00:55:47.846Z,99319.09
2023-11-24T01:00:49.507Z,99322.91
2023-11-24T01:05:51.263Z,99296.53
2023-11-24T01:10:57.697Z,99312.09
2023-11-24T01:15:59.479Z,99340.94
2023-11-24T01:21:01.027Z,99337.59
2023-11-24T01:26:04.219Z,99313.25
2023-11-24T01:31:06.360Z,99314.00
2023-11-24T01:36:08.806Z,99314.28
2023-11-24T01:41:10.369Z,99325.06
2023-11-24T01:46:12.020Z,99316.66
2023-11-24T01:51:13.587Z,99302.41
2023-11-24T01:56:15.301Z,99292.06
2023-11-24T02:01:17.264Z,99294.44
2023-11-24T02:06:19.260Z,99279.34
2023-11-24T02:11:21.040Z,99294.56
2023-11-24T02:16:22.631Z,99302.53
2023-11-24T02:21:24.364Z,99294.25
2023-11-24T02:26:27.289Z,99287.84
2023-11-24T02:31:28.900Z,99307.53
2023-11-24T02:36:32.031Z,99298.72
2023-11-24T02:41:33.665Z,99308.38
2023-11-24T02:46:35.197Z,99322.34
2023-11-24T02:51:36.773Z,99306.28
2023-11-24T02:56:38.689Z,99310.91
2023-11-24T03:01:42.338Z,99307.84
2023-11-24T03:06:44.214Z,99298.72
2023-11-24T03:11:45.772Z,99301.59
2023-11-24T03:16:48.441Z,99304.66
2023-11-24T03:21:50.052Z,99278.41
2023-11-24T03:26:51.690Z,99284.00
2023-11-24T03:31:53.181Z,99280.88
2023-11-24T03:36:54.698Z,99286.31
2023-11-24T03:41:57.465Z,99287.47
2023-11-24T03:46:59.073Z,99277.69
2023-11-24T03:52:00.934Z,99278.53
2023-11-24T03:57:02.508Z,99269.19
2023-11-24T04:02:04.410Z,99274.34
2023-11-24T04:07:06.002Z,99278.44
2023-11-24T04:12:07.581Z,99271.56
2023-11-24T04:17:10.758Z,99279.78
2023-11-24T04:22:12.274Z,99267.91
2023-11-24T04:27:13.757Z,99262.91
2023-11-24T04:32:15.284Z,99241.84
2023-11-24T04:37:19.240Z,99237.34
2023-11-24T04:42:21.631Z,99236.22
2023-11-24T04:47:23.235Z,99234.03
2023-11-24T04:52:24.756Z,99234.44
2023-11-24T04:57:26.227Z,99234.69
2023-11-24T05:02:31.237Z,99234.84
2023-11-24T05:07:32.810Z,99222.25
2023-11-24T05:12:36.027Z,99234.16
2023-11-24T05:17:37.655Z,99231.31
2023-11-24T05:22:40.520Z,99224.78
2023-11-24T05:27:42.071Z,99225.22
2023-11-24T05:32:45.526Z,99222.41
2023-11-24T05:37:47.467Z,99230.06
2023-11-24T05:42:49.169Z,99217.13
2023-11-24T05:47:50.701Z,99224.09
2023-11-24T05:52:52.226Z,99208.72
2023-11-24T05:57:53.792Z,99197.44
2023-11-24T06:02:55.283Z,99207.47
2023-11-24T06:07:59.113Z,99200.22
2023-11-24T06:13:00.704Z,99196.31
2023-11-24T06:18:02.276Z,99185.16
2023-11-24T06:23:04.892Z,99208.06
2023-11-24T06:28:06.989Z,99186.44
2023-11-24T06:33:08.515Z,99180.03
2023-11-24T06:38:10.083Z,99189.78
2023-11-24T06:43:11.692Z,99178.75
2023-11-24T06:48:13.302Z,99180.44
2023-11-24T06:53:14.798Z,99189.50
2023-11-24T06:58:16.323Z,99194.50
2023-11-24T07:03:18.964Z,99200.81
2023-11-24T07:08:21.148Z,99195.22
2023-11-24T07:13:22.665Z,99187.28
2023-11-24T07:18:24.415Z,99205.53
2023-11-24T07:23:26.120Z,99178.75
2023-11-24T07:28:27.592Z,99197.31
2023-11-24T07:33:29.123Z,99220.25
2023-11-24T07:38:31.027Z,99215.66
2023-11-24T07:43:35.529Z,99222.41
2023-11-24T07:48:38.073Z,99223.31
2023-11-24T07:53:39.580Z,99211.28
2023-11-24T07:58:41.202Z,99206.81
2023-11-24T08:03:42.803Z,99202.84
2023-11-24T08:08:44.392Z,99189.84
2023-11-24T08:13:46.074Z,99233.44
2023-11-24T08:18:49.557Z,99239.53
2023-11-24T08:23:52.650Z,99224.53
2023-11-24T08:28:54.314Z,99236.78
2023-11-24T08:33:55.826Z,99220.91
2023-11-24T08:38:57.342Z,99241.81
2023-11-24T08:43:58.821Z,99246.84
2023-11-24T08:49:00.347Z,99228.38
2023-11-24T08:54:01.902Z,99219.28
2023-11-24T08:59:09.629Z,99208.72
2023-11-24T09:04:11.489Z,99200.94
2023-11-24T09:09:13.706Z,99203.91
2023-11-24T09:14:15.694Z,99197.53
2023-11-24T09:19:18.344Z,99211.28
2023-11-24T09:24:19.951Z,99214.66
2023-11-24T09:29:21.584Z,99215.06
2023-11-24T09:34:26.028Z,99187.63
2023-11-24T09:39:29.359Z,99174.88
2023-11-24T09:44:30.983Z,99184.47
2023-11-24T09:49:32.531Z,99174.53
2023-11-24T09:54:34.061Z,99159.41
2023-11-24T09:59:35.587Z,99135.16
2023-11-24T10:04:37.134Z,99130.19
2023-11-24T10:09:39.729Z,99127.56
2023-11-24T10:14:44.563Z,99110.59
2023-11-24T10:19:46.082Z,99092.38
2023-11-24T10:24:48.724Z,99074.97
2023-11-24T10:29:51.363Z,99054.78
2023-11-24T10:34:53.080Z,99052.72
2023-11-24T10:40:00.087Z,99048.56
2023-11-24T10:45:09.028Z,99032.06
2023-11-24T10:50:17.381Z,99030.81
2023-11-24T10:55:19.015Z,99029.16
2023-11-24T11:00:21.802Z,99023.88
2023-11-24T11:05:42.083Z,99015.88
2023-11-24T11:10:47.396Z,99021.06
2023-11-24T11:15:52.142Z,98998.84
2023-11-24T11:20:53.756Z,98992.97
2023-11-24T11:25:55.269Z,99009.03
2023-11-24T11:30:58.711Z,98990.69
2023-11-24T11:36:06.795Z,98980.53
2023-11-24T11:41:10.307Z,98976.09
2023-11-24T11:46:11.911Z,98987.53
2023-11-24T11:51:17.710Z,98980.69
2023-11-24T11:56:21.974Z,98993.63
2023-11-24T12:01:23.601Z,98980.38
2023-11-24T12:06:25.748Z,98994.03
2023-11-24T12:11:27.935Z,98970.03
2023-11-24T12:16:33.706Z,98961.06
2023-11-24T12:21:36.789Z,98945.78
2023-11-24T12:26:42.199Z,98934.16
2023-11-24T12:31:43.931Z,98934.03
2023-11-24T12:36:46.444Z,98924.00
2023-11-24T12:41:47.991Z,98904.63
2023-11-24T12:46:49.769Z,98869.22
2023-11-24T12:51:51.484Z,98864.09
2023-11-24T12:56:54.532Z,98853.53
2023-11-24T13:01:56.161Z,98865.78
2023-11-24T13:06:59.165Z,98867.63
2023-11-24T13:12:15.954Z,98883.91
2023-11-24T13:17:21.926Z,98895.00
2023-11-24T13:22:23.527Z,98882.59
2023-11-24T13:27:25.608Z,98883.75
2023-11-24T13:32:27.454Z,98860.75
2023-11-24T13:37:31.544Z,98845.75
2023-11-24T13:42:35.316Z,98846.03
2023-11-24T13:47:36.925Z,98838.75
2023-11-24T13:52:38.809Z,98847.28
2023-11-24T13:57:40.776Z,98847.38
2023-11-24T14:02:42.573Z,98845.25
2023-11-24T14:07:46.199Z,98848.91
2023-11-24T14:12:49.270Z,98837.66
2023-11-24T14:17:51.480Z,98824.66
2023-11-24T14:22:54.058Z,98825.34
2023-11-24T14:27:55.874Z,98817.22
2023-11-24T14:33:00.493Z,98816.66
2023-11-24T14:38:02.734Z,98801.75
2023-11-24T14:43:04.624Z,98802.88
2023-11-24T14:48:06.995Z,98800.66
2023-11-24T14:53:10.062Z,98795.06
2023-11-24T14:58:12.770Z,98782.84
2023-11-24T15:03:18.498Z,98780.84
2023-11-24T15:08:20.359Z,98781.69
2023-11-24T15:13:22.910Z,98782.94
2023-11-24T15:18:26.456Z,98784.63
2023-11-24T15:23:28.849Z,98770.03
2023-11-24T15:28:34.655Z,98787.47
2023-11-24T15:33:36.445Z,98773.91
2023-11-24T15:38:37.939Z,98769.31
2023-11-24T15:43:39.415Z,98783.97
2023-11-24T15:48:41.016Z,98786.28
2023-11-24T15:53:42.566Z,98797.53
2023-11-24T15:58:45.862Z,98805.19
2023-11-24T16:03:47.467Z,98802.56
2023-11-24T16:08:55.719Z,98779.81
2023-11-24T16:14:00.286Z,98774.78
2023-11-24T16:19:01.821Z,98778.44
2023-11-24T16:24:03.706Z,98786.78
2023-11-24T16:29:05.180Z,98779.97
2023-11-24T16:34:06.720Z,98783.06
2023-11-24T16:39:12.761Z,98775.03
2023-11-24T16:44:14.303Z,98778.72
2023-11-24T16:49:15.862Z,98758.84
2023-11-24T16:54:17.367Z,98758.88
2023-11-24T16:59:21.316Z,98753.31
2023-11-24T17:04:22.933Z,98746.41
2023-11-24T17:09:24.423Z,98739.75
2023-11-24T17:14:29.411Z,98725.63
2023-11-24T17:19:32.122Z,98735.41
2023-11-24T17:24:34.177Z,98743.06
2023-11-24T17:29:35.697Z,98741.31
2023-11-24T17:34:37.973Z,98744.88
2023-11-24T17:39:41.179Z,98730.97
2023-11-24T17:44:42.685Z,98715.31
2023-11-24T17:49:44.151Z,98711.25
2023-11-24T17:54:45.630Z,98726.91
2023-11-24T17:59:47.104Z,98713.91
2023-11-24T18:04:48.578Z,98709.66
2023-11-24T18:09:50.123Z,98712.81
2023-11-24T18:14:51.694Z,98703.28
2023-11-24T18:19:55.900Z,98712.84
2023-11-24T18:24:59.329Z,98719.63
2023-11-24T18:30:01.023Z,98741.34
2023-11-24T18:35:02.553Z,98729.56
2023-11-24T18:40:06.565Z,98733.56
2023-11-24T18:45:09.890Z,98724.94
2023-11-24T18:50:11.483Z,98720.88
2023-11-24T18:55:13.466Z,98714.38
2023-11-24T19:00:19.984Z,98705.03
2023-11-24T19:05:22.040Z,98714.09
2023-11-24T19:10:23.675Z,98714.25
2023-11-24T19:15:25.193Z,98696.25
2023-11-24T19:20:26.786Z,98685.34
2023-11-24T19:25:28.373Z,98667.00
2023-11-24T19:30:29.879Z,98655.53
2023-11-24T19:35:31.390Z,98660.81
2023-11-24T19:40:32.942Z,98646.44
2023-11-24T19:45:34.657Z,98630.81
2023-11-24T19:50:36.171Z,98627.06
2023-11-24T19:55:37.725Z,98636.78
2023-11-24T20:00:39.790Z,98626.84
2023-11-24T20:05:41.985Z,98636.13
2023-11-24T20:10:43.482Z,98642.97
2023-11-24T20:15:45.105Z,98639.34
2023-11-24T20:20:47.852Z,98644.81
2023-11-24T20:25:49.481Z,98642.38
2023-11-24T20:30:51.053Z,98644.75
2023-11-24T20:35:52.537Z,98651.19
2023-11-24T20:40:55.994Z,98669.03
2023-11-24T20:45:57.710Z,98649.63
2023-11-24T20:50:59.484Z,98638.47
2023-11-24T20:56:00.952Z,98641.53
2023-11-24T21:01:02.532Z,98635.13
2023-11-24T21:06:04.443Z,98629.84
2023-11-24T21:11:06.034Z,98619.81
2023-11-24T21:16:07.913Z,98621.41
2023-11-24T21:21:10.068Z,98633.47
2023-11-24T21:26:11.964Z,98640.69
2023-11-24T21:31:14.868Z,98631.06
2023-11-24T21:36:16.916Z,98629.28
2023-11-24T21:41:20.679Z,98634.06
2023-11-24T21:46:23.141Z,98624.28
2023-11-24T21:51:24.881Z,98615.00
2023-11-24T21:56:27.305Z,98624.47
2023-11-24T22:01:28.986Z,98624.00
2023-11-24T22:06:35.455Z,98633.78
2023-11-24T22:11:37.002Z,98637.53
2023-11-24T22:16:38.600Z,98628.94
2023-11-24T22:21:40.367Z,98638.38
2023-11-24T22:26:43.050Z,98643.03
2023-11-24T22:31:45.190Z,98652.34
2023-11-24T22:36:46.701Z,98653.66
2023-11-24T22:41:48.835Z,98661.28
2023-11-24T22:46:50.611Z,98660.88
2023-11-24T22:51:52.116Z,98664.31
2023-11-24T22:56:53.587Z,98675.19
2023-11-24T23:01:55.984Z,98671.53
2023-11-24T23:06:57.744Z,98672.13
2023-11-24T23:11:59.313Z,98683.97
2023-11-24T23:17:01.538Z,98697.53
2023-11-24T23:22:07.505Z,98706.97
2023-11-24T23:27:09.242Z,98716.34
2023-11-24T23:32:10.775Z,98720.03
2023-11-24T23:37:12.325Z,98724.22
2023-11-24T23:42:13.920Z,98733.72
2023-11-24T23:47:15.887Z,98743.06
2023-11-24T23:52:17.462Z,98776.19
2023-11-24T23:57:19.050Z,98810.91
